sensor_id;sensor_type;location;lat;lon;timestamp;P1;durP1;ratioP1;P2;durP2;ratioP2
55913;SDS011;58179;48.776;9.124;2023-05-18T00:01:56;13.38;;;6.30;;
55913;SDS011;58179;48.776;9.124;2023-05-18T00:04:22;15.15;;;6.00;;
55913;SDS011;58179;48.776;9.124;2023-05-18T00:06:52;10.57;;;6.03;;
55913;SDS011;58179;48.776;9.124;2023-05-18T00:09:21;13.30;;;6.68;;
55913;SDS011;58179;48.776;9.124;2023-05-18T00:11:48;13.27;;;6.38;;
55913;SDS011;58179;48.776;9.124;2023-05-18T00:14:15;12.70;;;6.40;;
55913;SDS011;58179;48.776;9.124;2023-05-18T00:16:41;17.67;;;6.70;;
55913;SDS011;58179;48.776;9.124;2023-05-18T00:19:07;11.98;;;6.45;;
55913;SDS011;58179;48.776;9.124;2023-05-18T00:21:34;13.88;;;6.85;;
55913;SDS011;58179;48.776;9.124;2023-05-18T00:24:01;12.63;;;6.50;;
55913;SDS011;58179;48.776;9.124;2023-05-18T00:26:28;17.42;;;7.60;;
55913;SDS011;58179;48.776;9.124;2023-05-18T00:28:54;19.20;;;8.52;;
55913;SDS011;58179;48.776;9.124;2023-05-18T00:31:20;17.37;;;8.27;;
55913;SDS011;58179;48.776;9.124;2023-05-18T00:33:47;22.80;;;8.25;;
55913;SDS011;58179;48.776;9.124;2023-05-18T00:36:13;19.67;;;7.88;;
55913;SDS011;58179;48.776;9.124;2023-05-18T00:38:39;15.68;;;7.72;;
55913;SDS011;58179;48.776;9.124;2023-05-18T00:41:07;18.52;;;8.05;;
55913;SDS011;58179;48.776;9.124;2023-05-18T00:43:33;18.38;;;7.93;;
55913;SDS011;58179;48.776;9.124;2023-05-18T00:46:00;12.15;;;7.50;;
55913;SDS011;58179;48.776;9.124;2023-05-18T00:48:26;15.32;;;7.18;;
55913;SDS011;58179;48.776;9.124;2023-05-18T00:50:52;16.08;;;7.60;;
55913;SDS011;58179;48.776;9.124;2023-05-18T00:53:18;17.38;;;8.13;;
55913;SDS011;58179;48.776;9.124;2023-05-18T00:55:45;16.25;;;6.97;;
55913;SDS011;58179;48.776;9.124;2023-05-18T00:58:13;16.60;;;7.90;;
55913;SDS011;58179;48.776;9.124;2023-05-18T01:00:40;20.87;;;7.87;;
55913;SDS011;58179;48.776;9.124;2023-05-18T01:03:06;17.17;;;7.65;;
55913;SDS011;58179;48.776;9.124;2023-05-18T01:05:34;17.80;;;8.07;;
55913;SDS011;58179;48.776;9.124;2023-05-18T01:08:01;12.38;;;7.65;;
55913;SDS011;58179;48.776;9.124;2023-05-18T01:10:27;14.15;;;7.70;;
55913;SDS011;58179;48.776;9.124;2023-05-18T01:13:01;14.00;;;7.25;;
55913;SDS011;58179;48.776;9.124;2023-05-18T01:15:36;17.67;;;8.03;;
55913;SDS011;58179;48.776;9.124;2023-05-18T01:18:05;15.80;;;7.95;;
55913;SDS011;58179;48.776;9.124;2023-05-18T01:20:40;15.23;;;7.63;;
55913;SDS011;58179;48.776;9.124;2023-05-18T01:26:12;16.95;;;7.90;;
55913;SDS011;58179;48.776;9.124;2023-05-18T01:28:48;14.73;;;7.40;;
55913;SDS011;58179;48.776;9.124;2023-05-18T01:31:16;14.40;;;7.33;;
55913;SDS011;58179;48.776;9.124;2023-05-18T01:33:42;20.38;;;8.38;;
55913;SDS011;58179;48.776;9.124;2023-05-18T01:36:10;15.85;;;7.38;;
55913;SDS011;58179;48.776;9.124;2023-05-18T01:38:36;16.02;;;7.90;;
55913;SDS011;58179;48.776;9.124;2023-05-18T01:41:05;17.67;;;8.35;;
55913;SDS011;58179;48.776;9.124;2023-05-18T01:43:40;18.05;;;8.05;;
55913;SDS011;58179;48.776;9.124;2023-05-18T01:46:12;17.48;;;7.95;;
55913;SDS011;58179;48.776;9.124;2023-05-18T01:48:47;17.40;;;8.30;;
55913;SDS011;58179;48.776;9.124;2023-05-18T01:51:19;15.68;;;7.93;;
55913;SDS011;58179;48.776;9.124;2023-05-18T01:53:49;20.08;;;8.95;;
55913;SDS011;58179;48.776;9.124;2023-05-18T01:56:21;18.75;;;8.60;;
55913;SDS011;58179;48.776;9.124;2023-05-18T01:58:50;20.52;;;9.20;;
55913;SDS011;58179;48.776;9.124;2023-05-18T02:01:17;15.40;;;8.95;;
55913;SDS011;58179;48.776;9.124;2023-05-18T02:03:46;18.45;;;9.02;;
55913;SDS011;58179;48.776;9.124;2023-05-18T02:06:12;19.17;;;9.07;;
55913;SDS011;58179;48.776;9.124;2023-05-18T02:08:39;17.15;;;9.05;;
55913;SDS011;58179;48.776;9.124;2023-05-18T02:11:05;18.87;;;9.60;;
55913;SDS011;58179;48.776;9.124;2023-05-18T02:13:31;17.27;;;9.05;;
55913;SDS011;58179;48.776;9.124;2023-05-18T02:15:59;20.52;;;9.98;;
55913;SDS011;58179;48.776;9.124;2023-05-18T02:18:27;15.18;;;9.30;;
55913;SDS011;58179;48.776;9.124;2023-05-18T02:20:56;18.60;;;10.05;;
55913;SDS011;58179;48.776;9.124;2023-05-18T02:23:25;17.50;;;9.70;;
55913;SDS011;58179;48.776;9.124;2023-05-18T02:25:52;19.83;;;9.93;;
55913;SDS011;58179;48.776;9.124;2023-05-18T02:28:19;18.08;;;9.52;;
55913;SDS011;58179;48.776;9.124;2023-05-18T02:30:45;18.42;;;9.85;;
55913;SDS011;58179;48.776;9.124;2023-05-18T02:33:13;19.75;;;10.13;;
55913;SDS011;58179;48.776;9.124;2023-05-18T02:35:41;16.95;;;9.38;;
55913;SDS011;58179;48.776;9.124;2023-05-18T02:38:07;19.93;;;10.43;;
55913;SDS011;58179;48.776;9.124;2023-05-18T02:40:34;17.90;;;9.93;;
55913;SDS011;58179;48.776;9.124;2023-05-18T02:43:00;18.92;;;10.30;;
55913;SDS011;58179;48.776;9.124;2023-05-18T02:45:27;20.00;;;10.90;;
55913;SDS011;58179;48.776;9.124;2023-05-18T02:47:53;19.65;;;10.30;;
55913;SDS011;58179;48.776;9.124;2023-05-18T02:50:21;24.95;;;11.73;;
55913;SDS011;58179;48.776;9.124;2023-05-18T02:52:47;21.27;;;10.52;;
55913;SDS011;58179;48.776;9.124;2023-05-18T02:55:14;21.25;;;10.65;;
55913;SDS011;58179;48.776;9.124;2023-05-18T02:57:41;28.80;;;11.32;;
55913;SDS011;58179;48.776;9.124;2023-05-18T03:00:11;21.38;;;11.15;;
55913;SDS011;58179;48.776;9.124;2023-05-18T03:02:40;21.17;;;11.52;;
55913;SDS011;58179;48.776;9.124;2023-05-18T03:05:08;19.45;;;11.02;;
55913;SDS011;58179;48.776;9.124;2023-05-18T03:07:35;21.27;;;10.93;;
55913;SDS011;58179;48.776;9.124;2023-05-18T03:10:02;21.53;;;10.73;;
55913;SDS011;58179;48.776;9.124;2023-05-18T03:12:29;21.00;;;10.90;;
55913;SDS011;58179;48.776;9.124;2023-05-18T03:14:55;21.67;;;11.07;;
55913;SDS011;58179;48.776;9.124;2023-05-18T03:17:21;16.42;;;9.65;;
55913;SDS011;58179;48.776;9.124;2023-05-18T03:19:47;17.13;;;10.32;;
55913;SDS011;58179;48.776;9.124;2023-05-18T03:22:14;22.77;;;11.07;;
55913;SDS011;58179;48.776;9.124;2023-05-18T03:24:41;18.27;;;10.05;;
55913;SDS011;58179;48.776;9.124;2023-05-18T03:27:08;20.05;;;10.60;;
55913;SDS011;58179;48.776;9.124;2023-05-18T03:29:36;18.10;;;10.40;;
55913;SDS011;58179;48.776;9.124;2023-05-18T03:32:03;18.33;;;10.73;;
55913;SDS011;58179;48.776;9.124;2023-05-18T03:34:30;21.30;;;10.33;;
55913;SDS011;58179;48.776;9.124;2023-05-18T03:36:56;17.83;;;9.88;;
55913;SDS011;58179;48.776;9.124;2023-05-18T03:39:22;21.27;;;9.85;;
55913;SDS011;58179;48.776;9.124;2023-05-18T03:41:50;22.48;;;10.20;;
55913;SDS011;58179;48.776;9.124;2023-05-18T03:44:16;20.38;;;10.68;;
55913;SDS011;58179;48.776;9.124;2023-05-18T03:46:43;23.42;;;10.15;;
55913;SDS011;58179;48.776;9.124;2023-05-18T03:49:09;19.17;;;9.35;;
55913;SDS011;58179;48.776;9.124;2023-05-18T03:51:35;19.42;;;9.70;;
55913;SDS011;58179;48.776;9.124;2023-05-18T03:54:02;17.48;;;9.55;;
55913;SDS011;58179;48.776;9.124;2023-05-18T03:56:28;17.40;;;9.43;;
55913;SDS011;58179;48.776;9.124;2023-05-18T03:58:57;18.38;;;9.02;;
55913;SDS011;58179;48.776;9.124;2023-05-18T04:01:23;18.88;;;9.73;;
55913;SDS011;58179;48.776;9.124;2023-05-18T04:03:49;17.02;;;9.10;;
55913;SDS011;58179;48.776;9.124;2023-05-18T04:06:20;17.58;;;9.00;;
55913;SDS011;58179;48.776;9.124;2023-05-18T04:08:49;17.85;;;8.95;;
55913;SDS011;58179;48.776;9.124;2023-05-18T04:11:15;21.20;;;8.93;;
55913;SDS011;58179;48.776;9.124;2023-05-18T04:13:42;21.83;;;9.88;;
55913;SDS011;58179;48.776;9.124;2023-05-18T04:16:09;19.08;;;9.32;;
55913;SDS011;58179;48.776;9.124;2023-05-18T04:18:37;19.13;;;8.90;;
55913;SDS011;58179;48.776;9.124;2023-05-18T04:21:03;15.75;;;9.02;;
55913;SDS011;58179;48.776;9.124;2023-05-18T04:23:30;17.95;;;8.95;;
55913;SDS011;58179;48.776;9.124;2023-05-18T04:26:02;16.55;;;9.20;;
55913;SDS011;58179;48.776;9.124;2023-05-18T04:28:29;16.25;;;8.60;;
55913;SDS011;58179;48.776;9.124;2023-05-18T04:30:56;18.58;;;8.80;;
55913;SDS011;58179;48.776;9.124;2023-05-18T04:33:24;20.02;;;9.20;;
55913;SDS011;58179;48.776;9.124;2023-05-18T04:35:50;18.97;;;8.93;;
55913;SDS011;58179;48.776;9.124;2023-05-18T04:38:19;17.33;;;8.82;;
55913;SDS011;58179;48.776;9.124;2023-05-18T04:40:47;22.98;;;9.35;;
55913;SDS011;58179;48.776;9.124;2023-05-18T04:43:14;19.37;;;9.83;;
55913;SDS011;58179;48.776;9.124;2023-05-18T04:45:43;19.23;;;9.60;;
55913;SDS011;58179;48.776;9.124;2023-05-18T04:48:14;16.92;;;8.70;;
55913;SDS011;58179;48.776;9.124;2023-05-18T04:50:45;20.58;;;9.23;;
55913;SDS011;58179;48.776;9.124;2023-05-18T04:53:11;19.77;;;8.50;;
55913;SDS011;58179;48.776;9.124;2023-05-18T04:55:37;18.67;;;8.43;;
55913;SDS011;58179;48.776;9.124;2023-05-18T04:58:04;16.73;;;8.45;;
55913;SDS011;58179;48.776;9.124;2023-05-18T05:00:30;19.30;;;9.02;;
55913;SDS011;58179;48.776;9.124;2023-05-18T05:02:57;19.25;;;8.73;;
55913;SDS011;58179;48.776;9.124;2023-05-18T05:05:23;21.10;;;8.27;;
55913;SDS011;58179;48.776;9.124;2023-05-18T05:07:52;17.85;;;8.30;;
55913;SDS011;58179;48.776;9.124;2023-05-18T05:10:20;16.77;;;8.10;;
55913;SDS011;58179;48.776;9.124;2023-05-18T05:12:47;15.23;;;7.70;;
55913;SDS011;58179;48.776;9.124;2023-05-18T05:15:15;18.20;;;8.07;;
55913;SDS011;58179;48.776;9.124;2023-05-18T05:17:42;21.42;;;8.02;;
55913;SDS011;58179;48.776;9.124;2023-05-18T05:20:10;20.85;;;8.50;;
55913;SDS011;58179;48.776;9.124;2023-05-18T05:22:36;16.30;;;7.65;;
55913;SDS011;58179;48.776;9.124;2023-05-18T05:25:04;20.27;;;7.80;;
55913;SDS011;58179;48.776;9.124;2023-05-18T05:27:32;16.77;;;7.60;;
55913;SDS011;58179;48.776;9.124;2023-05-18T05:29:59;18.40;;;7.60;;
55913;SDS011;58179;48.776;9.124;2023-05-18T05:32:25;17.13;;;7.18;;
55913;SDS011;58179;48.776;9.124;2023-05-18T05:34:52;19.10;;;7.20;;
55913;SDS011;58179;48.776;9.124;2023-05-18T05:37:18;19.17;;;7.40;;
55913;SDS011;58179;48.776;9.124;2023-05-18T05:39:44;15.02;;;7.00;;
55913;SDS011;58179;48.776;9.124;2023-05-18T05:42:12;20.90;;;8.85;;
55913;SDS011;58179;48.776;9.124;2023-05-18T05:44:40;34.28;;;12.57;;
55913;SDS011;58179;48.776;9.124;2023-05-18T05:47:06;30.00;;;11.40;;
55913;SDS011;58179;48.776;9.124;2023-05-18T05:49:33;19.45;;;7.07;;
55913;SDS011;58179;48.776;9.124;2023-05-18T05:51:59;17.52;;;7.07;;
55913;SDS011;58179;48.776;9.124;2023-05-18T05:54:25;15.63;;;6.38;;
55913;SDS011;58179;48.776;9.124;2023-05-18T05:56:52;19.63;;;7.53;;
55913;SDS011;58179;48.776;9.124;2023-05-18T05:59:19;21.42;;;6.88;;
55913;SDS011;58179;48.776;9.124;2023-05-18T06:01:46;19.83;;;6.60;;
55913;SDS011;58179;48.776;9.124;2023-05-18T06:04:12;17.30;;;6.43;;
55913;SDS011;58179;48.776;9.124;2023-05-18T06:06:39;22.67;;;5.88;;
55913;SDS011;58179;48.776;9.124;2023-05-18T06:09:07;18.60;;;6.15;;
55913;SDS011;58179;48.776;9.124;2023-05-18T06:11:34;17.35;;;6.60;;
55913;SDS011;58179;48.776;9.124;2023-05-18T06:14:01;20.52;;;6.65;;
55913;SDS011;58179;48.776;9.124;2023-05-18T06:16:31;20.23;;;6.68;;
55913;SDS011;58179;48.776;9.124;2023-05-18T06:19:18;17.50;;;5.53;;
55913;SDS011;58179;48.776;9.124;2023-05-18T06:22:29;20.88;;;5.95;;
55913;SDS011;58179;48.776;9.124;2023-05-18T06:24:55;17.90;;;6.10;;
55913;SDS011;58179;48.776;9.124;2023-05-18T06:27:22;13.75;;;5.38;;
55913;SDS011;58179;48.776;9.124;2023-05-18T06:29:48;16.40;;;5.65;;
55913;SDS011;58179;48.776;9.124;2023-05-18T06:32:18;16.17;;;5.67;;
55913;SDS011;58179;48.776;9.124;2023-05-18T06:34:44;15.98;;;5.10;;
55913;SDS011;58179;48.776;9.124;2023-05-18T06:37:11;16.67;;;4.88;;
55913;SDS011;58179;48.776;9.124;2023-05-18T06:39:38;15.75;;;4.82;;
55913;SDS011;58179;48.776;9.124;2023-05-18T06:42:04;20.80;;;5.50;;
55913;SDS011;58179;48.776;9.124;2023-05-18T06:44:32;24.17;;;5.75;;
55913;SDS011;58179;48.776;9.124;2023-05-18T06:46:59;16.35;;;4.97;;
55913;SDS011;58179;48.776;9.124;2023-05-18T06:49:27;18.05;;;5.68;;
55913;SDS011;58179;48.776;9.124;2023-05-18T06:51:53;16.38;;;5.68;;
55913;SDS011;58179;48.776;9.124;2023-05-18T06:54:21;20.13;;;5.53;;
55913;SDS011;58179;48.776;9.124;2023-05-18T06:56:47;17.40;;;5.70;;
55913;SDS011;58179;48.776;9.124;2023-05-18T06:59:15;15.05;;;5.32;;
55913;SDS011;58179;48.776;9.124;2023-05-18T07:01:43;15.70;;;5.20;;
55913;SDS011;58179;48.776;9.124;2023-05-18T07:04:10;21.25;;;5.47;;
55913;SDS011;58179;48.776;9.124;2023-05-18T07:06:38;17.85;;;5.47;;
55913;SDS011;58179;48.776;9.124;2023-05-18T07:09:04;19.98;;;5.57;;
55913;SDS011;58179;48.776;9.124;2023-05-18T07:11:34;24.15;;;5.68;;
55913;SDS011;58179;48.776;9.124;2023-05-18T07:14:09;14.98;;;5.07;;
55913;SDS011;58179;48.776;9.124;2023-05-18T07:16:37;17.27;;;5.22;;
55913;SDS011;58179;48.776;9.124;2023-05-18T07:19:04;21.25;;;5.32;;
55913;SDS011;58179;48.776;9.124;2023-05-18T07:21:31;17.80;;;5.78;;
55913;SDS011;58179;48.776;9.124;2023-05-18T07:24:02;18.63;;;5.60;;
55913;SDS011;58179;48.776;9.124;2023-05-18T07:26:30;18.25;;;5.28;;
55913;SDS011;58179;48.776;9.124;2023-05-18T07:29:02;15.35;;;5.20;;
55913;SDS011;58179;48.776;9.124;2023-05-18T07:31:28;11.82;;;5.38;;
55913;SDS011;58179;48.776;9.124;2023-05-18T07:33:55;16.80;;;5.63;;
55913;SDS011;58179;48.776;9.124;2023-05-18T07:36:21;21.92;;;6.10;;
55913;SDS011;58179;48.776;9.124;2023-05-18T07:38:48;18.02;;;5.30;;
55913;SDS011;58179;48.776;9.124;2023-05-18T07:41:23;20.15;;;5.15;;
55913;SDS011;58179;48.776;9.124;2023-05-18T07:43:50;14.77;;;5.35;;
55913;SDS011;58179;48.776;9.124;2023-05-18T07:46:16;13.65;;;5.35;;
55913;SDS011;58179;48.776;9.124;2023-05-18T07:48:43;16.23;;;5.40;;
55913;SDS011;58179;48.776;9.124;2023-05-18T07:51:10;14.77;;;5.15;;
55913;SDS011;58179;48.776;9.124;2023-05-18T07:53:42;13.30;;;5.23;;
55913;SDS011;58179;48.776;9.124;2023-05-18T07:56:31;18.75;;;5.55;;
55913;SDS011;58179;48.776;9.124;2023-05-18T07:58:58;15.77;;;5.10;;
55913;SDS011;58179;48.776;9.124;2023-05-18T08:01:25;13.48;;;5.43;;
55913;SDS011;58179;48.776;9.124;2023-05-18T08:03:54;15.65;;;5.22;;
55913;SDS011;58179;48.776;9.124;2023-05-18T08:06:20;14.18;;;5.10;;
55913;SDS011;58179;48.776;9.124;2023-05-18T08:08:47;14.40;;;5.03;;
55913;SDS011;58179;48.776;9.124;2023-05-18T08:11:14;17.30;;;5.40;;
55913;SDS011;58179;48.776;9.124;2023-05-18T08:13:43;12.93;;;4.97;;
55913;SDS011;58179;48.776;9.124;2023-05-18T08:16:11;15.38;;;4.95;;
55913;SDS011;58179;48.776;9.124;2023-05-18T08:18:37;12.60;;;4.82;;
55913;SDS011;58179;48.776;9.124;2023-05-18T08:21:04;19.50;;;5.40;;
55913;SDS011;58179;48.776;9.124;2023-05-18T08:23:34;15.32;;;5.13;;
55913;SDS011;58179;48.776;9.124;2023-05-18T08:26:00;14.25;;;4.97;;
55913;SDS011;58179;48.776;9.124;2023-05-18T08:28:30;18.40;;;5.72;;
55913;SDS011;58179;48.776;9.124;2023-05-18T08:30:58;12.63;;;5.03;;
55913;SDS011;58179;48.776;9.124;2023-05-18T08:33:24;15.20;;;4.67;;
55913;SDS011;58179;48.776;9.124;2023-05-18T08:35:50;19.15;;;5.05;;
55913;SDS011;58179;48.776;9.124;2023-05-18T08:38:18;18.67;;;5.90;;
55913;SDS011;58179;48.776;9.124;2023-05-18T08:40:46;18.10;;;5.23;;
55913;SDS011;58179;48.776;9.124;2023-05-18T08:43:19;16.45;;;5.18;;
55913;SDS011;58179;48.776;9.124;2023-05-18T08:45:54;18.00;;;4.90;;
55913;SDS011;58179;48.776;9.124;2023-05-18T08:48:30;16.10;;;5.00;;
55913;SDS011;58179;48.776;9.124;2023-05-18T08:51:00;13.70;;;4.55;;
55913;SDS011;58179;48.776;9.124;2023-05-18T08:53:31;17.60;;;4.70;;
55913;SDS011;58179;48.776;9.124;2023-05-18T08:55:59;16.92;;;4.53;;
55913;SDS011;58179;48.776;9.124;2023-05-18T08:58:28;15.00;;;4.57;;
55913;SDS011;58179;48.776;9.124;2023-05-18T09:00:58;16.63;;;5.20;;
55913;SDS011;58179;48.776;9.124;2023-05-18T09:03:27;15.10;;;4.10;;
55913;SDS011;58179;48.776;9.124;2023-05-18T09:05:56;14.80;;;3.95;;
55913;SDS011;58179;48.776;9.124;2023-05-18T09:08:24;19.20;;;4.07;;
55913;SDS011;58179;48.776;9.124;2023-05-18T09:10:52;18.65;;;4.45;;
55913;SDS011;58179;48.776;9.124;2023-05-18T09:13:22;13.43;;;3.92;;
55913;SDS011;58179;48.776;9.124;2023-05-18T09:15:51;21.10;;;4.65;;
55913;SDS011;58179;48.776;9.124;2023-05-18T09:18:20;16.80;;;4.90;;
55913;SDS011;58179;48.776;9.124;2023-05-18T09:20:46;15.30;;;4.38;;
55913;SDS011;58179;48.776;9.124;2023-05-18T09:23:13;19.10;;;5.40;;
55913;SDS011;58179;48.776;9.124;2023-05-18T09:25:42;12.70;;;4.10;;
55913;SDS011;58179;48.776;9.124;2023-05-18T09:28:24;12.02;;;4.10;;
55913;SDS011;58179;48.776;9.124;2023-05-18T09:30:52;15.13;;;4.18;;
55913;SDS011;58179;48.776;9.124;2023-05-18T09:33:20;17.42;;;4.47;;
55913;SDS011;58179;48.776;9.124;2023-05-18T09:35:49;13.90;;;4.68;;
55913;SDS011;58179;48.776;9.124;2023-05-18T09:38:15;14.85;;;4.28;;
55913;SDS011;58179;48.776;9.124;2023-05-18T09:40:46;17.40;;;4.50;;
55913;SDS011;58179;48.776;9.124;2023-05-18T09:43:14;16.73;;;4.75;;
55913;SDS011;58179;48.776;9.124;2023-05-18T09:45:43;14.00;;;4.30;;
55913;SDS011;58179;48.776;9.124;2023-05-18T09:48:18;14.95;;;4.25;;
55913;SDS011;58179;48.776;9.124;2023-05-18T09:50:49;14.97;;;4.00;;
55913;SDS011;58179;48.776;9.124;2023-05-18T09:53:16;13.35;;;4.47;;
55913;SDS011;58179;48.776;9.124;2023-05-18T09:55:46;15.97;;;4.20;;
55913;SDS011;58179;48.776;9.124;2023-05-18T09:58:13;16.42;;;4.25;;
55913;SDS011;58179;48.776;9.124;2023-05-18T10:00:40;10.13;;;3.80;;
55913;SDS011;58179;48.776;9.124;2023-05-18T10:03:18;13.15;;;4.10;;
55913;SDS011;58179;48.776;9.124;2023-05-18T10:05:47;17.92;;;4.00;;
55913;SDS011;58179;48.776;9.124;2023-05-18T10:08:15;12.27;;;3.93;;
55913;SDS011;58179;48.776;9.124;2023-05-18T10:10:42;13.77;;;4.50;;
55913;SDS011;58179;48.776;9.124;2023-05-18T10:13:11;20.67;;;4.55;;
55913;SDS011;58179;48.776;9.124;2023-05-18T10:15:48;13.75;;;3.85;;
55913;SDS011;58179;48.776;9.124;2023-05-18T10:18:19;10.93;;;3.50;;
55913;SDS011;58179;48.776;9.124;2023-05-18T10:20:49;13.27;;;3.75;;
55913;SDS011;58179;48.776;9.124;2023-05-18T10:23:17;10.75;;;3.85;;
55913;SDS011;58179;48.776;9.124;2023-05-18T10:25:46;11.10;;;3.80;;
55913;SDS011;58179;48.776;9.124;2023-05-18T10:28:16;15.90;;;4.00;;
55913;SDS011;58179;48.776;9.124;2023-05-18T10:30:45;14.73;;;3.60;;
55913;SDS011;58179;48.776;9.124;2023-05-18T10:33:11;14.45;;;3.65;;
55913;SDS011;58179;48.776;9.124;2023-05-18T10:35:42;12.07;;;3.90;;
55913;SDS011;58179;48.776;9.124;2023-05-18T10:38:13;11.38;;;3.60;;
55913;SDS011;58179;48.776;9.124;2023-05-18T10:40:44;11.45;;;3.50;;
55913;SDS011;58179;48.776;9.124;2023-05-18T10:43:12;16.75;;;4.00;;
55913;SDS011;58179;48.776;9.124;2023-05-18T10:45:39;19.00;;;3.70;;
55913;SDS011;58179;48.776;9.124;2023-05-18T10:48:08;13.77;;;4.38;;
55913;SDS011;58179;48.776;9.124;2023-05-18T10:50:35;13.77;;;4.27;;
55913;SDS011;58179;48.776;9.124;2023-05-18T10:53:04;10.82;;;3.30;;
55913;SDS011;58179;48.776;9.124;2023-05-18T10:55:32;11.53;;;3.60;;
55913;SDS011;58179;48.776;9.124;2023-05-18T10:58:00;13.18;;;3.72;;
55913;SDS011;58179;48.776;9.124;2023-05-18T11:00:33;12.00;;;4.10;;
55913;SDS011;58179;48.776;9.124;2023-05-18T11:03:01;15.35;;;3.45;;
55913;SDS011;58179;48.776;9.124;2023-05-18T11:05:31;9.15;;;3.30;;
55913;SDS011;58179;48.776;9.124;2023-05-18T11:07:58;12.65;;;3.50;;
55913;SDS011;58179;48.776;9.124;2023-05-18T11:10:33;9.57;;;3.00;;
55913;SDS011;58179;48.776;9.124;2023-05-18T11:13:02;8.98;;;3.15;;
55913;SDS011;58179;48.776;9.124;2023-05-18T11:18:33;10.13;;;3.33;;
55913;SDS011;58179;48.776;9.124;2023-05-18T11:21:01;10.80;;;3.35;;
55913;SDS011;58179;48.776;9.124;2023-05-18T11:23:29;12.70;;;3.30;;
55913;SDS011;58179;48.776;9.124;2023-05-18T11:25:59;11.10;;;3.20;;
55913;SDS011;58179;48.776;9.124;2023-05-18T11:28:29;12.75;;;3.15;;
55913;SDS011;58179;48.776;9.124;2023-05-18T11:30:57;12.98;;;3.10;;
55913;SDS011;58179;48.776;9.124;2023-05-18T11:33:25;13.75;;;3.30;;
55913;SDS011;58179;48.776;9.124;2023-05-18T11:35:59;10.48;;;3.40;;
55913;SDS011;58179;48.776;9.124;2023-05-18T11:38:47;10.70;;;3.35;;
55913;SDS011;58179;48.776;9.124;2023-05-18T11:41:27;14.57;;;3.38;;
55913;SDS011;58179;48.776;9.124;2023-05-18T11:46:52;11.25;;;3.63;;
55913;SDS011;58179;48.776;9.124;2023-05-18T11:49:21;11.13;;;3.13;;
55913;SDS011;58179;48.776;9.124;2023-05-18T11:51:55;12.13;;;3.43;;
55913;SDS011;58179;48.776;9.124;2023-05-18T11:54:26;10.80;;;3.72;;
55913;SDS011;58179;48.776;9.124;2023-05-18T11:56:54;9.15;;;3.30;;
55913;SDS011;58179;48.776;9.124;2023-05-18T11:59:29;11.70;;;3.17;;
55913;SDS011;58179;48.776;9.124;2023-05-18T12:01:58;12.87;;;3.60;;
55913;SDS011;58179;48.776;9.124;2023-05-18T12:04:25;16.20;;;3.65;;
55913;SDS011;58179;48.776;9.124;2023-05-18T12:06:52;10.25;;;3.15;;
55913;SDS011;58179;48.776;9.124;2023-05-18T12:09:21;11.17;;;2.93;;
55913;SDS011;58179;48.776;9.124;2023-05-18T12:11:48;7.03;;;2.77;;
55913;SDS011;58179;48.776;9.124;2023-05-18T12:14:16;8.93;;;2.90;;
55913;SDS011;58179;48.776;9.124;2023-05-18T12:16:45;13.53;;;3.27;;
55913;SDS011;58179;48.776;9.124;2023-05-18T12:19:13;14.90;;;3.33;;
55913;SDS011;58179;48.776;9.124;2023-05-18T12:21:40;16.50;;;3.38;;
55913;SDS011;58179;48.776;9.124;2023-05-18T12:24:07;9.57;;;3.08;;
55913;SDS011;58179;48.776;9.124;2023-05-18T12:26:33;14.25;;;3.00;;
55913;SDS011;58179;48.776;9.124;2023-05-18T12:29:00;10.52;;;3.33;;
55913;SDS011;58179;48.776;9.124;2023-05-18T12:31:27;10.98;;;3.13;;
55913;SDS011;58179;48.776;9.124;2023-05-18T12:33:55;16.17;;;3.27;;
55913;SDS011;58179;48.776;9.124;2023-05-18T12:36:22;10.52;;;3.05;;
55913;SDS011;58179;48.776;9.124;2023-05-18T12:38:50;10.70;;;2.90;;
55913;SDS011;58179;48.776;9.124;2023-05-18T12:41:22;10.93;;;3.10;;
55913;SDS011;58179;48.776;9.124;2023-05-18T12:43:48;11.55;;;3.20;;
55913;SDS011;58179;48.776;9.124;2023-05-18T12:46:17;11.80;;;2.90;;
55913;SDS011;58179;48.776;9.124;2023-05-18T12:48:46;10.90;;;2.85;;
55913;SDS011;58179;48.776;9.124;2023-05-18T12:51:19;12.15;;;2.70;;
55913;SDS011;58179;48.776;9.124;2023-05-18T12:53:47;11.55;;;3.00;;
55913;SDS011;58179;48.776;9.124;2023-05-18T12:56:14;9.23;;;2.75;;
55913;SDS011;58179;48.776;9.124;2023-05-18T12:58:53;15.40;;;3.27;;
55913;SDS011;58179;48.776;9.124;2023-05-18T13:01:21;9.00;;;3.00;;
55913;SDS011;58179;48.776;9.124;2023-05-18T13:03:53;11.98;;;2.90;;
55913;SDS011;58179;48.776;9.124;2023-05-18T13:06:21;12.63;;;3.17;;
55913;SDS011;58179;48.776;9.124;2023-05-18T13:08:47;9.35;;;2.70;;
55913;SDS011;58179;48.776;9.124;2023-05-18T13:11:17;14.18;;;3.05;;
55913;SDS011;58179;48.776;9.124;2023-05-18T13:13:56;13.55;;;3.03;;
55913;SDS011;58179;48.776;9.124;2023-05-18T13:16:23;11.75;;;3.58;;
55913;SDS011;58179;48.776;9.124;2023-05-18T13:18:55;10.02;;;3.03;;
55913;SDS011;58179;48.776;9.124;2023-05-18T13:21:23;8.37;;;2.70;;
55913;SDS011;58179;48.776;9.124;2023-05-18T13:23:50;9.77;;;2.72;;
55913;SDS011;58179;48.776;9.124;2023-05-18T13:26:17;13.23;;;2.80;;
55913;SDS011;58179;48.776;9.124;2023-05-18T13:28:46;10.50;;;2.97;;
55913;SDS011;58179;48.776;9.124;2023-05-18T13:31:13;14.48;;;3.25;;
55913;SDS011;58179;48.776;9.124;2023-05-18T13:33:39;10.10;;;2.88;;
55913;SDS011;58179;48.776;9.124;2023-05-18T13:36:08;11.90;;;2.42;;
55913;SDS011;58179;48.776;9.124;2023-05-18T13:38:34;8.52;;;2.70;;
55913;SDS011;58179;48.776;9.124;2023-05-18T13:41:01;9.90;;;2.78;;
55913;SDS011;58179;48.776;9.124;2023-05-18T13:43:28;11.52;;;2.80;;
55913;SDS011;58179;48.776;9.124;2023-05-18T13:45:55;13.50;;;2.95;;
55913;SDS011;58179;48.776;9.124;2023-05-18T13:48:22;8.77;;;2.67;;
55913;SDS011;58179;48.776;9.124;2023-05-18T13:50:48;14.17;;;3.10;;
55913;SDS011;58179;48.776;9.124;2023-05-18T13:53:16;11.60;;;2.92;;
55913;SDS011;58179;48.776;9.124;2023-05-18T13:55:42;10.57;;;2.60;;
55913;SDS011;58179;48.776;9.124;2023-05-18T13:58:08;10.95;;;3.33;;
55913;SDS011;58179;48.776;9.124;2023-05-18T14:00:47;11.07;;;3.17;;
55913;SDS011;58179;48.776;9.124;2023-05-18T14:03:14;9.90;;;2.50;;
55913;SDS011;58179;48.776;9.124;2023-05-18T14:05:42;10.85;;;3.25;;
55913;SDS011;58179;48.776;9.124;2023-05-18T14:08:09;14.68;;;3.38;;
55913;SDS011;58179;48.776;9.124;2023-05-18T14:10:36;10.05;;;2.95;;
55913;SDS011;58179;48.776;9.124;2023-05-18T14:13:03;13.15;;;3.45;;
55913;SDS011;58179;48.776;9.124;2023-05-18T14:15:30;15.40;;;2.80;;
55913;SDS011;58179;48.776;9.124;2023-05-18T14:17:56;12.00;;;2.70;;
55913;SDS011;58179;48.776;9.124;2023-05-18T14:20:22;15.80;;;3.50;;
55913;SDS011;58179;48.776;9.124;2023-05-18T14:22:48;9.07;;;2.60;;
55913;SDS011;58179;48.776;9.124;2023-05-18T14:25:15;14.45;;;2.88;;
55913;SDS011;58179;48.776;9.124;2023-05-18T14:27:42;10.50;;;2.60;;
55913;SDS011;58179;48.776;9.124;2023-05-18T14:30:09;11.10;;;2.90;;
55913;SDS011;58179;48.776;9.124;2023-05-18T14:32:37;13.25;;;2.80;;
55913;SDS011;58179;48.776;9.124;2023-05-18T14:35:04;12.35;;;2.97;;
55913;SDS011;58179;48.776;9.124;2023-05-18T14:37:30;8.50;;;2.53;;
55913;SDS011;58179;48.776;9.124;2023-05-18T14:39:57;11.98;;;2.65;;
55913;SDS011;58179;48.776;9.124;2023-05-18T14:42:23;11.40;;;2.60;;
55913;SDS011;58179;48.776;9.124;2023-05-18T14:44:50;11.63;;;2.90;;
55913;SDS011;58179;48.776;9.124;2023-05-18T14:47:17;11.90;;;2.27;;
55913;SDS011;58179;48.776;9.124;2023-05-18T14:49:43;12.13;;;2.90;;